sensor_id;sensor_type;location;lat;lon;timestamp;temperature;humidity
18797;DHT22;9526;52.612;13.300;2022-11-20T00:00:08;1.40;99.90
18797;DHT22;9526;52.612;13.300;2022-11-20T00:02:33;1.30;99.90
18797;DHT22;9526;52.612;13.300;2022-11-20T00:04:58;1.30;99.90
18797;DHT22;9526;52.612;13.300;2022-11-20T00:07:21;1.30;99.90
18797;DHT22;9526;52.612;13.300;2022-11-20T00:09:45;1.40;99.90
18797;DHT22;9526;52.612;13.300;2022-11-20T00:12:09;1.40;99.90
18797;DHT22;9526;52.612;13.300;2022-11-20T00:14:32;1.30;99.90
18797;DHT22;9526;52.612;13.300;2022-11-20T00:16:56;1.30;99.90
18797;DHT22;9526;52.612;13.300;2022-11-20T00:19:19;1.20;99.90
18797;DHT22;9526;52.612;13.300;2022-11-20T00:21:45;1.20;99.90
18797;DHT22;9526;52.612;13.300;2022-11-20T00:24:09;1.20;99.90
18797;DHT22;9526;52.612;13.300;2022-11-20T00:26:33;1.20;99.90
18797;DHT22;9526;52.612;13.300;2022-11-20T00:28:57;1.30;99.90
18797;DHT22;9526;52.612;13.300;2022-11-20T00:31:22;1.20;99.90
18797;DHT22;9526;52.612;13.300;2022-11-20T00:33:46;1.20;99.90
18797;DHT22;9526;52.612;13.300;2022-11-20T00:36:11;1.30;99.90
18797;DHT22;9526;52.612;13.300;2022-11-20T00:38:37;1.20;99.90
18797;DHT22;9526;52.612;13.300;2022-11-20T00:41:03;1.20;99.90
18797;DHT22;9526;52.612;13.300;2022-11-20T00:43:28;1.20;99.90
18797;DHT22;9526;52.612;13.300;2022-11-20T00:45:56;1.10;99.90
18797;DHT22;9526;52.612;13.300;2022-11-20T00:48:20;1.10;99.90
18797;DHT22;9526;52.612;13.300;2022-11-20T00:50:44;1.10;99.90
18797;DHT22;9526;52.612;13.300;2022-11-20T00:53:07;1.10;99.90
18797;DHT22;9526;52.612;13.300;2022-11-20T00:55:32;1.10;99.90
18797;DHT22;9526;52.612;13.300;2022-11-20T00:57:56;1.20;99.90
18797;DHT22;9526;52.612;13.300;2022-11-20T01:00:25;1.20;99.90
18797;DHT22;9526;52.612;13.300;2022-11-20T01:02:48;1.10;99.90
18797;DHT22;9526;52.612;13.300;2022-11-20T01:05:12;1.10;99.90
18797;DHT22;9526;52.612;13.300;2022-11-20T01:07:36;1.10;99.90
18797;DHT22;9526;52.612;13.300;2022-11-20T01:09:59;1.10;99.90
18797;DHT22;9526;52.612;13.300;2022-11-20T01:12:24;1.10;99.90
18797;DHT22;9526;52.612;13.300;2022-11-20T01:14:48;1.10;99.90
18797;DHT22;9526;52.612;13.300;2022-11-20T01:17:11;1.10;99.90
18797;DHT22;9526;52.612;13.300;2022-11-20T01:19:35;1.10;99.90
18797;DHT22;9526;52.612;13.300;2022-11-20T01:21:59;1.10;99.90
18797;DHT22;9526;52.612;13.300;2022-11-20T01:24:22;1.20;99.90
18797;DHT22;9526;52.612;13.300;2022-11-20T01:26:48;1.10;99.90
18797;DHT22;9526;52.612;13.300;2022-11-20T01:29:15;1.10;99.90
18797;DHT22;9526;52.612;13.300;2022-11-20T01:31:42;1.20;99.90
18797;DHT22;9526;52.612;13.300;2022-11-20T01:34:09;1.20;99.90
18797;DHT22;9526;52.612;13.300;2022-11-20T01:36:35;1.10;99.90
18797;DHT22;9526;52.612;13.300;2022-11-20T01:39:02;1.10;99.90
18797;DHT22;9526;52.612;13.300;2022-11-20T01:41:29;1.10;99.90
18797;DHT22;9526;52.612;13.300;2022-11-20T01:44:12;1.10;99.90
18797;DHT22;9526;52.612;13.300;2022-11-20T01:46:38;1.20;99.90
18797;DHT22;9526;52.612;13.300;2022-11-20T01:49:05;1.20;99.90
18797;DHT22;9526;52.612;13.300;2022-11-20T01:51:38;1.20;99.90
18797;DHT22;9526;52.612;13.300;2022-11-20T01:54:05;1.20;99.90
18797;DHT22;9526;52.612;13.300;2022-11-20T01:56:33;1.10;99.90
18797;DHT22;9526;52.612;13.300;2022-11-20T01:59:04;1.10;99.90
18797;DHT22;9526;52.612;13.300;2022-11-20T02:01:30;1.10;99.90
18797;DHT22;9526;52.612;13.300;2022-11-20T02:03:54;1.20;99.90
18797;DHT22;9526;52.612;13.300;2022-11-20T02:06:23;1.20;99.90
18797;DHT22;9526;52.612;13.300;2022-11-20T02:08:48;1.10;99.90
18797;DHT22;9526;52.612;13.300;2022-11-20T02:11:11;1.10;99.90
18797;DHT22;9526;52.612;13.300;2022-11-20T02:13:36;1.10;99.90
18797;DHT22;9526;52.612;13.300;2022-11-20T02:16:10;1.00;99.90
18797;DHT22;9526;52.612;13.300;2022-11-20T02:18:38;1.10;99.90
18797;DHT22;9526;52.612;13.300;2022-11-20T02:21:07;1.10;99.90
18797;DHT22;9526;52.612;13.300;2022-11-20T02:24:02;1.00;99.90
18797;DHT22;9526;52.612;13.300;2022-11-20T02:26:30;1.10;99.90
18797;DHT22;9526;52.612;13.300;2022-11-20T02:28:55;1.10;99.90
18797;DHT22;9526;52.612;13.300;2022-11-20T02:31:19;1.00;99.90
18797;DHT22;9526;52.612;13.300;2022-11-20T02:33:42;1.00;99.90
18797;DHT22;9526;52.612;13.300;2022-11-20T02:36:08;1.00;99.90
18797;DHT22;9526;52.612;13.300;2022-11-20T02:38:34;1.00;99.90
18797;DHT22;9526;52.612;13.300;2022-11-20T02:41:00;1.00;99.90
18797;DHT22;9526;52.612;13.300;2022-11-20T02:43:23;0.90;99.90
18797;DHT22;9526;52.612;13.300;2022-11-20T02:45:47;0.90;99.90
18797;DHT22;9526;52.612;13.300;2022-11-20T02:48:10;0.90;99.90
18797;DHT22;9526;52.612;13.300;2022-11-20T02:50:37;0.90;99.90
18797;DHT22;9526;52.612;13.300;2022-11-20T02:53:01;1.00;99.90
18797;DHT22;9526;52.612;13.300;2022-11-20T02:55:25;1.00;99.90
18797;DHT22;9526;52.612;13.300;2022-11-20T02:57:50;1.00;99.90
18797;DHT22;9526;52.612;13.300;2022-11-20T03:00:14;1.00;99.90
18797;DHT22;9526;52.612;13.300;2022-11-20T03:02:38;1.00;99.90
18797;DHT22;9526;52.612;13.300;2022-11-20T03:05:02;1.00;99.90
18797;DHT22;9526;52.612;13.300;2022-11-20T03:07:26;1.10;99.90
18797;DHT22;9526;52.612;13.300;2022-11-20T03:09:50;1.00;99.90
18797;DHT22;9526;52.612;13.300;2022-11-20T03:12:13;1.00;99.90
18797;DHT22;9526;52.612;13.300;2022-11-20T03:14:39;1.00;99.90
18797;DHT22;9526;52.612;13.300;2022-11-20T03:17:02;1.00;99.90
18797;DHT22;9526;52.612;13.300;2022-11-20T03:19:26;1.00;99.90
18797;DHT22;9526;52.612;13.300;2022-11-20T03:21:50;1.00;99.90
18797;DHT22;9526;52.612;13.300;2022-11-20T03:24:14;1.00;99.90
18797;DHT22;9526;52.612;13.300;2022-11-20T03:26:39;1.00;99.90
18797;DHT22;9526;52.612;13.300;2022-11-20T03:29:04;1.00;99.90
18797;DHT22;9526;52.612;13.300;2022-11-20T03:31:30;1.00;99.90
18797;DHT22;9526;52.612;13.300;2022-11-20T03:33:56;0.90;99.90
18797;DHT22;9526;52.612;13.300;2022-11-20T03:36:20;1.00;99.90
18797;DHT22;9526;52.612;13.300;2022-11-20T03:38:45;1.00;99.90
18797;DHT22;9526;52.612;13.300;2022-11-20T03:41:11;0.90;99.90
18797;DHT22;9526;52.612;13.300;2022-11-20T03:43:36;0.90;99.90
18797;DHT22;9526;52.612;13.300;2022-11-20T03:46:00;0.90;99.90
18797;DHT22;9526;52.612;13.300;2022-11-20T03:48:26;0.90;99.90
18797;DHT22;9526;52.612;13.300;2022-11-20T03:50:50;0.90;99.90
18797;DHT22;9526;52.612;13.300;2022-11-20T03:53:13;0.90;99.90
18797;DHT22;9526;52.612;13.300;2022-11-20T03:55:37;0.90;99.90
18797;DHT22;9526;52.612;13.300;2022-11-20T03:58:01;0.90;99.90
18797;DHT22;9526;52.612;13.300;2022-11-20T04:00:24;0.80;99.90
18797;DHT22;9526;52.612;13.300;2022-11-20T04:02:48;0.90;99.90
18797;DHT22;9526;52.612;13.300;2022-11-20T04:05:13;0.90;99.90
18797;DHT22;9526;52.612;13.300;2022-11-20T04:07:37;0.90;99.90
18797;DHT22;9526;52.612;13.300;2022-11-20T04:10:00;0.80;99.90
18797;DHT22;9526;52.612;13.300;2022-11-20T04:12:24;0.80;99.90
18797;DHT22;9526;52.612;13.300;2022-11-20T04:14:47;0.80;99.90
18797;DHT22;9526;52.612;13.300;2022-11-20T04:17:11;0.90;99.90
18797;DHT22;9526;52.612;13.300;2022-11-20T04:19:35;0.90;99.90
18797;DHT22;9526;52.612;13.300;2022-11-20T04:22:00;0.90;99.90
18797;DHT22;9526;52.612;13.300;2022-11-20T04:24:24;0.90;99.90
18797;DHT22;9526;52.612;13.300;2022-11-20T04:26:48;0.80;99.90
18797;DHT22;9526;52.612;13.300;2022-11-20T04:29:12;0.80;99.90
18797;DHT22;9526;52.612;13.300;2022-11-20T04:31:36;0.80;99.90
18797;DHT22;9526;52.612;13.300;2022-11-20T04:34:01;0.90;99.90
18797;DHT22;9526;52.612;13.300;2022-11-20T04:36:26;0.80;99.90
18797;DHT22;9526;52.612;13.300;2022-11-20T04:38:53;0.80;99.90
18797;DHT22;9526;52.612;13.300;2022-11-20T04:41:20;0.80;99.90
18797;DHT22;9526;52.612;13.300;2022-11-20T04:43:47;0.70;99.90
18797;DHT22;9526;52.612;13.300;2022-11-20T04:46:11;0.80;99.90
18797;DHT22;9526;52.612;13.300;2022-11-20T04:48:35;0.70;99.90
18797;DHT22;9526;52.612;13.300;2022-11-20T04:51:02;0.70;99.90
18797;DHT22;9526;52.612;13.300;2022-11-20T04:53:27;0.70;99.90
18797;DHT22;9526;52.612;13.300;2022-11-20T04:55:52;0.70;99.90
18797;DHT22;9526;52.612;13.300;2022-11-20T04:58:22;0.70;99.90
18797;DHT22;9526;52.612;13.300;2022-11-20T05:00:46;0.70;99.90
18797;DHT22;9526;52.612;13.300;2022-11-20T05:03:09;0.70;99.90
18797;DHT22;9526;52.612;13.300;2022-11-20T05:05:34;0.70;99.90
18797;DHT22;9526;52.612;13.300;2022-11-20T05:07:58;0.70;99.90
18797;DHT22;9526;52.612;13.300;2022-11-20T05:10:21;0.70;99.90
18797;DHT22;9526;52.612;13.300;2022-11-20T05:12:46;0.70;99.90
18797;DHT22;9526;52.612;13.300;2022-11-20T05:15:10;0.70;99.90
18797;DHT22;9526;52.612;13.300;2022-11-20T05:17:34;0.70;99.90
18797;DHT22;9526;52.612;13.300;2022-11-20T05:19:57;0.70;99.90
18797;DHT22;9526;52.612;13.300;2022-11-20T05:22:21;0.60;99.90
18797;DHT22;9526;52.612;13.300;2022-11-20T05:24:45;0.70;99.90
18797;DHT22;9526;52.612;13.300;2022-11-20T05:27:08;0.70;99.90
18797;DHT22;9526;52.612;13.300;2022-11-20T05:29:33;0.70;99.90
18797;DHT22;9526;52.612;13.300;2022-11-20T05:31:57;0.70;99.90
18797;DHT22;9526;52.612;13.300;2022-11-20T05:34:20;0.70;99.90
18797;DHT22;9526;52.612;13.300;2022-11-20T05:36:44;0.70;99.90
18797;DHT22;9526;52.612;13.300;2022-11-20T05:39:07;0.70;99.90
18797;DHT22;9526;52.612;13.300;2022-11-20T05:41:33;0.70;99.90
18797;DHT22;9526;52.612;13.300;2022-11-20T05:43:56;0.70;99.90
18797;DHT22;9526;52.612;13.300;2022-11-20T05:46:22;0.70;99.90
18797;DHT22;9526;52.612;13.300;2022-11-20T05:48:50;0.70;99.90
18797;DHT22;9526;52.612;13.300;2022-11-20T05:51:15;0.70;99.90
18797;DHT22;9526;52.612;13.300;2022-11-20T05:53:40;0.70;99.90
18797;DHT22;9526;52.612;13.300;2022-11-20T05:56:10;0.70;99.90
18797;DHT22;9526;52.612;13.300;2022-11-20T05:58:35;0.70;99.90
18797;DHT22;9526;52.612;13.300;2022-11-20T06:01:04;0.70;99.90
18797;DHT22;9526;52.612;13.300;2022-11-20T06:03:30;0.70;99.90
18797;DHT22;9526;52.612;13.300;2022-11-20T06:05:54;0.70;99.90
18797;DHT22;9526;52.612;13.300;2022-11-20T06:08:17;0.70;99.90
18797;DHT22;9526;52.612;13.300;2022-11-20T06:10:41;0.70;99.90
18797;DHT22;9526;52.612;13.300;2022-11-20T06:13:04;0.70;99.90
18797;DHT22;9526;52.612;13.300;2022-11-20T06:15:28;0.70;99.90
18797;DHT22;9526;52.612;13.300;2022-11-20T06:17:52;0.70;99.90
18797;DHT22;9526;52.612;13.300;2022-11-20T06:20:17;0.70;99.90
18797;DHT22;9526;52.612;13.300;2022-11-20T06:22:40;0.70;99.90
18797;DHT22;9526;52.612;13.300;2022-11-20T06:25:04;0.70;99.90
18797;DHT22;9526;52.612;13.300;2022-11-20T06:27:28;0.70;99.90
18797;DHT22;9526;52.612;13.300;2022-11-20T06:29:52;0.80;99.90
18797;DHT22;9526;52.612;13.300;2022-11-20T06:32:15;0.80;99.90
18797;DHT22;9526;52.612;13.300;2022-11-20T06:34:39;0.80;99.90
18797;DHT22;9526;52.612;13.300;2022-11-20T06:37:03;0.70;99.90
18797;DHT22;9526;52.612;13.300;2022-11-20T06:39:27;0.70;99.90
18797;DHT22;9526;52.612;13.300;2022-11-20T06:41:51;0.80;99.90
18797;DHT22;9526;52.612;13.300;2022-11-20T06:44:20;0.80;99.90
18797;DHT22;9526;52.612;13.300;2022-11-20T06:46:43;0.80;99.90
18797;DHT22;9526;52.612;13.300;2022-11-20T06:49:07;0.80;99.90
18797;DHT22;9526;52.612;13.300;2022-11-20T06:51:30;0.80;99.90
18797;DHT22;9526;52.612;13.300;2022-11-20T06:53:55;0.80;99.90
18797;DHT22;9526;52.612;13.300;2022-11-20T06:56:19;0.80;99.90
18797;DHT22;9526;52.612;13.300;2022-11-20T06:58:43;0.80;99.90
18797;DHT22;9526;52.612;13.300;2022-11-20T07:01:08;0.80;99.90
18797;DHT22;9526;52.612;13.300;2022-11-20T07:03:33;0.90;99.90
18797;DHT22;9526;52.612;13.300;2022-11-20T07:05:58;0.90;99.90
18797;DHT22;9526;52.612;13.300;2022-11-20T07:08:23;0.90;99.90
18797;DHT22;9526;52.612;13.300;2022-11-20T07:10:48;0.90;99.90
18797;DHT22;9526;52.612;13.300;2022-11-20T07:13:12;1.00;99.90
18797;DHT22;9526;52.612;13.300;2022-11-20T07:15:35;1.00;99.90
18797;DHT22;9526;52.612;13.300;2022-11-20T07:17:59;1.10;99.90
18797;DHT22;9526;52.612;13.300;2022-11-20T07:20:22;1.10;99.90
18797;DHT22;9526;52.612;13.300;2022-11-20T07:22:46;1.00;99.90
18797;DHT22;9526;52.612;13.300;2022-11-20T07:25:11;1.00;99.90
18797;DHT22;9526;52.612;13.300;2022-11-20T07:27:36;1.00;99.90
18797;DHT22;9526;52.612;13.300;2022-11-20T07:30:00;1.00;99.90
18797;DHT22;9526;52.612;13.300;2022-11-20T07:32:23;1.00;99.90
18797;DHT22;9526;52.612;13.300;2022-11-20T07:34:47;1.00;99.90
18797;DHT22;9526;52.612;13.300;2022-11-20T07:37:10;1.00;99.90
18797;DHT22;9526;52.612;13.300;2022-11-20T07:39:34;1.10;99.90
18797;DHT22;9526;52.612;13.300;2022-11-20T07:41:57;1.10;99.90
18797;DHT22;9526;52.612;13.300;2022-11-20T07:44:22;1.10;99.90
18797;DHT22;9526;52.612;13.300;2022-11-20T07:46:46;1.20;99.90
18797;DHT22;9526;52.612;13.300;2022-11-20T07:49:09;1.20;99.90
18797;DHT22;9526;52.612;13.300;2022-11-20T07:51:33;1.30;99.90
18797;DHT22;9526;52.612;13.300;2022-11-20T07:53:57;1.40;99.90
18797;DHT22;9526;52.612;13.300;2022-11-20T07:56:20;1.40;99.90
18797;DHT22;9526;52.612;13.300;2022-11-20T07:58:44;1.50;99.90
18797;DHT22;9526;52.612;13.300;2022-11-20T08:01:09;1.50;99.90
18797;DHT22;9526;52.612;13.300;2022-11-20T08:03:33;1.50;99.90
18797;DHT22;9526;52.612;13.300;2022-11-20T08:05:59;1.60;99.90
18797;DHT22;9526;52.612;13.300;2022-11-20T08:08:23;1.60;99.90
18797;DHT22;9526;52.612;13.300;2022-11-20T08:10:47;1.60;99.90
18797;DHT22;9526;52.612;13.300;2022-11-20T08:13:10;1.70;99.90
18797;DHT22;9526;52.612;13.300;2022-11-20T08:15:51;1.70;99.90
18797;DHT22;9526;52.612;13.300;2022-11-20T08:18:17;1.70;99.90
18797;DHT22;9526;52.612;13.300;2022-11-20T08:20:56;1.70;99.90
18797;DHT22;9526;52.612;13.300;2022-11-20T08:23:19;1.80;99.90
18797;DHT22;9526;52.612;13.300;2022-11-20T08:25:43;1.80;99.90
18797;DHT22;9526;52.612;13.300;2022-11-20T08:28:08;1.80;99.90
18797;DHT22;9526;52.612;13.300;2022-11-20T08:30:42;1.80;99.90
18797;DHT22;9526;52.612;13.300;2022-11-20T08:33:08;1.80;99.90
18797;DHT22;9526;52.612;13.300;2022-11-20T08:35:34;1.80;99.90
18797;DHT22;9526;52.612;13.300;2022-11-20T08:37:58;1.80;99.90
18797;DHT22;9526;52.612;13.300;2022-11-20T08:40:22;1.90;99.90
18797;DHT22;9526;52.612;13.300;2022-11-20T08:42:46;1.90;99.90
18797;DHT22;9526;52.612;13.300;2022-11-20T08:45:10;1.90;99.90
18797;DHT22;9526;52.612;13.300;2022-11-20T08:47:34;2.00;99.90
18797;DHT22;9526;52.612;13.300;2022-11-20T08:49:57;2.10;99.90
18797;DHT22;9526;52.612;13.300;2022-11-20T08:52:22;2.00;99.90
18797;DHT22;9526;52.612;13.300;2022-11-20T08:54:46;2.00;99.90
18797;DHT22;9526;52.612;13.300;2022-11-20T08:57:09;2.00;99.90
18797;DHT22;9526;52.612;13.300;2022-11-20T08:59:33;2.00;99.90
18797;DHT22;9526;52.612;13.300;2022-11-20T09:02:17;2.00;99.90
18797;DHT22;9526;52.612;13.300;2022-11-20T09:04:40;1.80;99.90
18797;DHT22;9526;52.612;13.300;2022-11-20T09:07:04;1.80;99.90
18797;DHT22;9526;52.612;13.300;2022-11-20T09:09:29;2.00;99.90
18797;DHT22;9526;52.612;13.300;2022-11-20T09:11:53;1.90;99.90
18797;DHT22;9526;52.612;13.300;2022-11-20T09:14:16;2.10;99.90
18797;DHT22;9526;52.612;13.300;2022-11-20T09:16:40;2.10;99.90
18797;DHT22;9526;52.612;13.300;2022-11-20T09:19:03;2.10;99.90
18797;DHT22;9526;52.612;13.300;2022-11-20T09:21:47;2.00;99.90
18797;DHT22;9526;52.612;13.300;2022-11-20T09:24:11;2.10;99.90
18797;DHT22;9526;52.612;13.300;2022-11-20T09:26:36;2.20;99.90
18797;DHT22;9526;52.612;13.300;2022-11-20T09:28:59;2.20;99.90
18797;DHT22;9526;52.612;13.300;2022-11-20T09:31:24;2.20;99.90
18797;DHT22;9526;52.612;13.300;2022-11-20T09:33:48;2.20;99.90
18797;DHT22;9526;52.612;13.300;2022-11-20T09:36:12;2.20;99.90
18797;DHT22;9526;52.612;13.300;2022-11-20T09:38:36;2.30;99.90
18797;DHT22;9526;52.612;13.300;2022-11-20T09:41:03;2.30;99.90
18797;DHT22;9526;52.612;13.300;2022-11-20T09:43:41;2.40;99.90
18797;DHT22;9526;52.612;13.300;2022-11-20T09:46:16;2.40;99.90
18797;DHT22;9526;52.612;13.300;2022-11-20T09:48:52;2.40;99.90
18797;DHT22;9526;52.612;13.300;2022-11-20T09:51:31;2.50;99.90
18797;DHT22;9526;52.612;13.300;2022-11-20T09:54:09;2.60;99.90
18797;DHT22;9526;52.612;13.300;2022-11-20T09:56:41;2.70;99.90
18797;DHT22;9526;52.612;13.300;2022-11-20T09:59:19;2.70;99.90
18797;DHT22;9526;52.612;13.300;2022-11-20T10:01:50;2.70;99.90
18797;DHT22;9526;52.612;13.300;2022-11-20T10:04:16;2.60;99.90
18797;DHT22;9526;52.612;13.300;2022-11-20T10:06:47;2.60;99.90
18797;DHT22;9526;52.612;13.300;2022-11-20T10:09:36;2.60;99.90
18797;DHT22;9526;52.612;13.300;2022-11-20T10:12:12;2.80;99.90
18797;DHT22;9526;52.612;13.300;2022-11-20T10:14:49;2.70;99.90
18797;DHT22;9526;52.612;13.300;2022-11-20T10:17:29;2.70;99.90
18797;DHT22;9526;52.612;13.300;2022-11-20T10:20:14;2.80;99.90
18797;DHT22;9526;52.612;13.300;2022-11-20T10:22:48;2.70;99.90
18797;DHT22;9526;52.612;13.300;2022-11-20T10:25:19;2.70;99.90
18797;DHT22;9526;52.612;13.300;2022-11-20T10:28:03;2.80;99.90
18797;DHT22;9526;52.612;13.300;2022-11-20T10:30:40;2.90;99.90
18797;DHT22;9526;52.612;13.300;2022-11-20T10:33:10;2.90;99.90
18797;DHT22;9526;52.612;13.300;2022-11-20T10:35:40;2.90;99.90
18797;DHT22;9526;52.612;13.300;2022-11-20T10:38:12;3.10;99.90
18797;DHT22;9526;52.612;13.300;2022-11-20T10:40:42;2.90;99.90
18797;DHT22;9526;52.612;13.300;2022-11-20T10:43:12;2.90;99.90
18797;DHT22;9526;52.612;13.300;2022-11-20T10:45:46;3.00;99.90
18797;DHT22;9526;52.612;13.300;2022-11-20T10:48:16;3.10;99.90
18797;DHT22;9526;52.612;13.300;2022-11-20T10:50:47;3.00;99.90
18797;DHT22;9526;52.612;13.300;2022-11-20T10:53:20;3.00;99.90
18797;DHT22;9526;52.612;13.300;2022-11-20T10:55:56;3.00;99.90
18797;DHT22;9526;52.612;13.300;2022-11-20T10:58:29;2.90;99.90
18797;DHT22;9526;52.612;13.300;2022-11-20T11:01:05;2.90;99.90
18797;DHT22;9526;52.612;13.300;2022-11-20T11:03:31;2.90;99.90
18797;DHT22;9526;52.612;13.300;2022-11-20T11:05:59;2.80;99.90
18797;DHT22;9526;52.612;13.300;2022-11-20T11:08:29;2.70;99.90
18797;DHT22;9526;52.612;13.300;2022-11-20T11:11:00;2.70;99.90
18797;DHT22;9526;52.612;13.300;2022-11-20T11:13:26;2.70;99.90
18797;DHT22;9526;52.612;13.300;2022-11-20T11:15:51;2.80;99.90
18797;DHT22;9526;52.612;13.300;2022-11-20T11:18:25;2.90;99.90
18797;DHT22;9526;52.612;13.300;2022-11-20T11:20:52;2.90;99.90
18797;DHT22;9526;52.612;13.300;2022-11-20T11:23:29;3.00;99.90
18797;DHT22;9526;52.612;13.300;2022-11-20T11:26:00;2.90;99.90
18797;DHT22;9526;52.612;13.300;2022-11-20T11:28:25;2.80;99.90
18797;DHT22;9526;52.612;13.300;2022-11-20T11:30:49;2.70;99.90
18797;DHT22;9526;52.612;13.300;2022-11-20T11:33:19;2.60;99.90
18797;DHT22;9526;52.612;13.300;2022-11-20T11:35:47;2.70;99.90
18797;DHT22;9526;52.612;13.300;2022-11-20T11:38:15;2.70;99.90
18797;DHT22;9526;52.612;13.300;2022-11-20T11:40:40;2.60;99.90
18797;DHT22;9526;52.612;13.300;2022-11-20T11:43:07;2.50;99.90
18797;DHT22;9526;52.612;13.300;2022-11-20T11:45:58;2.50;99.90
18797;DHT22;9526;52.612;13.300;2022-11-20T11:48:22;2.50;99.90
18797;DHT22;9526;52.612;13.300;2022-11-20T11:50:50;2.60;99.90
18797;DHT22;9526;52.612;13.300;2022-11-20T11:53:17;2.50;99.90
18797;DHT22;9526;52.612;13.300;2022-11-20T11:55:44;2.50;99.90
18797;DHT22;9526;52.612;13.300;2022-11-20T11:58:29;2.40;99.90
18797;DHT22;9526;52.612;13.300;2022-11-20T12:01:01;2.30;99.90
18797;DHT22;9526;52.612;13.300;2022-11-20T12:03:32;2.30;99.90
18797;DHT22;9526;52.612;13.300;2022-11-20T12:06:03;2.30;99.90
18797;DHT22;9526;52.612;13.300;2022-11-20T12:08:32;2.30;99.90
18797;DHT22;9526;52.612;13.300;2022-11-20T12:11:06;2.20;99.90
18797;DHT22;9526;52.612;13.300;2022-11-20T12:13:41;2.20;99.90
18797;DHT22;9526;52.612;13.300;2022-11-20T12:16:12;2.40;99.90
18797;DHT22;9526;52.612;13.300;2022-11-20T12:18:37;2.50;99.90
18797;DHT22;9526;52.612;13.300;2022-11-20T12:21:17;2.50;99.90
18797;DHT22;9526;52.612;13.300;2022-11-20T12:23:53;2.50;99.90
18797;DHT22;9526;52.612;13.300;2022-11-20T12:26:35;2.40;99.90
18797;DHT22;9526;52.612;13.300;2022-11-20T12:29:09;2.40;99.90
18797;DHT22;9526;52.612;13.300;2022-11-20T12:32:06;2.40;99.90
18797;DHT22;9526;52.612;13.300;2022-11-20T12:34:53;2.50;99.90
18797;DHT22;9526;52.612;13.300;2022-11-20T12:37:30;2.40;99.90
18797;DHT22;9526;52.612;13.300;2022-11-20T12:40:02;2.40;99.90
18797;DHT22;9526;52.612;13.300;2022-11-20T12:42:55;2.50;99.90
18797;DHT22;9526;52.612;13.300;2022-11-20T12:48:50;2.40;99.90
18797;DHT22;9526;52.612;13.300;2022-11-20T12:51:45;2.40;99.90
18797;DHT22;9526;52.612;13.300;2022-11-20T12:54:48;2.60;99.90
18797;DHT22;9526;52.612;13.300;2022-11-20T12:57:29;2.60;99.90
18797;DHT22;9526;52.612;13.300;2022-11-20T13:00:14;2.70;99.90
18797;DHT22;9526;52.612;13.300;2022-11-20T13:05:58;2.80;99.90
18797;DHT22;9526;52.612;13.300;2022-11-20T13:08:28;2.70;99.90
18797;DHT22;9526;52.612;13.300;2022-11-20T13:11:03;2.70;99.90
18797;DHT22;9526;52.612;13.300;2022-11-20T13:13:39;2.80;99.90
18797;DHT22;9526;52.612;13.300;2022-11-20T13:16:12;2.70;99.90
18797;DHT22;9526;52.612;13.300;2022-11-20T13:18:40;2.60;99.90
18797;DHT22;9526;52.612;13.300;2022-11-20T13:21:17;2.60;99.90
18797;DHT22;9526;52.612;13.300;2022-11-20T13:23:42;2.50;99.90
18797;DHT22;9526;52.612;13.300;2022-11-20T13:26:16;2.50;99.90
18797;DHT22;9526;52.612;13.300;2022-11-20T13:28:41;2.50;99.90
18797;DHT22;9526;52.612;13.300;2022-11-20T13:31:09;2.50;99.90
18797;DHT22;9526;52.612;13.300;2022-11-20T13:33:52;2.40;99.90
18797;DHT22;9526;52.612;13.300;2022-11-20T13:36:22;2.40;99.90
18797;DHT22;9526;52.612;13.300;2022-11-20T13:38:49;2.50;99.90
18797;DHT22;9526;52.612;13.300;2022-11-20T13:41:25;2.40;99.90
18797;DHT22;9526;52.612;13.300;2022-11-20T13:43:54;2.40;99.90
18797;DHT22;9526;52.612;13.300;2022-11-20T13:46:39;2.40;99.90
18797;DHT22;9526;52.612;13.300;2022-11-20T13:49:10;2.40;99.90
18797;DHT22;9526;52.612;13.300;2022-11-20T13:51:42;2.40;99.90
18797;DHT22;9526;52.612;13.300;2022-11-20T13:54:20;2.30;99.90
18797;DHT22;9526;52.612;13.300;2022-11-20T13:57:02;2.30;99.90
18797;DHT22;9526;52.612;13.300;2022-11-20T13:59:43;2.20;99.90
18797;DHT22;9526;52.612;13.300;2022-11-20T14:02:18;2.20;99.90
18797;DHT22;9526;52.612;13.300;2022-11-20T14:04:45;2.20;99.90
18797;DHT22;9526;52.612;13.300;2022-11-20T14:07:10;2.10;99.90
18797;DHT22;9526;52.612;13.300;2022-11-20T14:09:34;2.10;99.90
18797;DHT22;9526;52.612;13.300;2022-11-20T14:12:01;2.20;99.90
18797;DHT22;9526;52.612;13.300;2022-11-20T14:14:26;2.20;99.90
18797;DHT22;9526;52.612;13.300;2022-11-20T14:16:50;2.20;99.90
18797;DHT22;9526;52.612;13.300;2022-11-20T14:19:27;2.20;99.90
18797;DHT22;9526;52.612;13.300;2022-11-20T14:22:05;2.10;99.90
18797;DHT22;9526;52.612;13.300;2022-11-20T14:24:30;2.10;99.90
18797;DHT22;9526;52.612;13.300;2022-11-20T14:26:54;2.10;99.90
18797;DHT22;9526;52.612;13.300;2022-11-20T14:29:20;2.00;99.90
18797;DHT22;9526;52.612;13.300;2022-11-20T14:31:47;2.10;99.90
18797;DHT22;9526;52.612;13.300;2022-11-20T14:34:18;2.10;99.90
18797;DHT22;9526;52.612;13.300;2022-11-20T14:36:44;2.10;99.90
18797;DHT22;9526;52.612;13.300;2022-11-20T14:39:10;2.10;99.90
18797;DHT22;9526;52.612;13.300;2022-11-20T14:41:34;2.10;99.90
18797;DHT22;9526;52.612;13.300;2022-11-20T14:43:58;2.10;99.90
18797;DHT22;9526;52.612;13.300;2022-11-20T14:46:25;2.10;99.90
18797;DHT22;9526;52.612;13.300;2022-11-20T14:48:51;2.10;99.90
18797;DHT22;9526;52.612;13.300;2022-11-20T14:51:28;2.10;99.90
18797;DHT22;9526;52.612;13.300;2022-11-20T14:53:53;2.10;99.90
18797;DHT22;9526;52.612;13.300;2022-11-20T14:56:21;2.10;99.90
18797;DHT22;9526;52.612;13.300;2022-11-20T14:58:55;2.00;99.90
18797;DHT22;9526;52.612;13.300;2022-11-20T15:01:27;1.90;99.90
18797;DHT22;9526;52.612;13.300;2022-11-20T15:04:04;1.90;99.90
18797;DHT22;9526;52.612;13.300;2022-11-20T15:06:29;1.90;99.90
18797;DHT22;9526;52.612;13.300;2022-11-20T15:08:53;1.90;99.90
18797;DHT22;9526;52.612;13.300;2022-11-20T15:11:18;1.90;99.90
18797;DHT22;9526;52.612;13.300;2022-11-20T15:13:42;1.90;99.90
18797;DHT22;9526;52.612;13.300;2022-11-20T15:16:13;1.90;99.90
18797;DHT22;9526;52.612;13.300;2022-11-20T15:18:41;1.90;99.90
18797;DHT22;9526;52.612;13.300;2022-11-20T15:21:10;1.90;99.90
18797;DHT22;9526;52.612;13.300;2022-11-20T15:23:35;1.80;99.90
18797;DHT22;9526;52.612;13.300;2022-11-20T15:25:58;1.80;99.90
18797;DHT22;9526;52.612;13.300;2022-11-20T15:28:27;1.80;99.90
18797;DHT22;9526;52.612;13.300;2022-11-20T15:30:53;1.80;99.90
18797;DHT22;9526;52.612;13.300;2022-11-20T15:33:17;1.80;99.90
18797;DHT22;9526;52.612;13.300;2022-11-20T15:35:43;1.70;99.90
18797;DHT22;9526;52.612;13.300;2022-11-20T15:38:07;1.70;99.90
18797;DHT22;9526;52.612;13.300;2022-11-20T15:40:30;1.70;99.90
18797;DHT22;9526;52.612;13.300;2022-11-20T15:42:54;1.70;99.90
18797;DHT22;9526;52.612;13.300;2022-11-20T15:45:38;1.70;99.90
18797;DHT22;9526;52.612;13.300;2022-11-20T15:48:04;1.70;99.90
18797;DHT22;9526;52.612;13.300;2022-11-20T15:50:35;1.60;99.90
18797;DHT22;9526;52.612;13.300;2022-11-20T15:53:02;1.60;99.90